Terminal Aerodrome Forecast
Issued by NWS

Home | Current Version | Previous Version | Text Only | Print | Product List | Glossary On
Versions: 1 2 3 4 5 6 7 8 9 10 11 12 13 14 15
000
FTUS45 KVEF 262300
TAFBIH
TAF
KBIH 262321Z 2700/2724 17010KT P6SM FEW100 BKN150 OVC200
     FM270300 17008KT P6SM VCSH SCT050 OVC100
     FM270400 17006KT P6SM -RA BKN040 OVC070
     FM270900 VRB05KT P6SM -SHRA BKN040 BKN070
     FM271900 17008KT P6SM SCT040 BKN070=

USA.gov is the U.S. government's official web portal to all federal, state and local government web resources and services.